Time;durP1;ratioP1;P1;durP2;ratioP2;P2;SDS_P1;SDS_P2;PMS_P1;PMS_P2;Temp;Humidity;BMP_temperature;BMP_pressure;BME280_temperature;BME280_humidity;BME280_pressure;Samples;Min_cycle;Max_cycle;Signal;HPM_P1;HPM_P2
2022/09/02 00:01:02;;;;;;;2.85;1.80;;;;;;;14.99;79.86;100171.47;5091982;28;20016;-79
2022/09/02 00:03:30;;;;;;;3.45;1.80;;;;;;;14.95;79.63;100170.78;5091852;28;20044;-79
2022/09/02 00:05:56;;;;;;;2.30;1.70;;;;;;;14.95;79.61;100176.03;5091654;28;20019;-79
2022/09/02 00:08:22;;;;;;;2.53;1.60;;;;;;;14.88;79.90;100156.34;5091906;28;20373;-79
2022/09/02 00:10:47;;;;;;;2.60;1.70;;;;;;;14.91;79.94;100169.28;5092139;28;20020;-79
2022/09/02 00:13:15;;;;;;;2.90;1.80;;;;;;;14.82;79.92;100148.81;5091896;28;20020;-79
2022/09/02 00:15:42;;;;;;;3.85;1.92;;;;;;;14.87;80.34;100162.50;5091914;28;20016;-79
2022/09/02 00:18:12;;;;;;;4.32;1.70;;;;;;;14.79;80.32;100154.25;5091791;28;20035;-79
2022/09/02 00:20:40;;;;;;;2.08;1.83;;;;;;;14.75;80.38;100154.47;5091931;28;20024;-79
2022/09/02 00:23:07;;;;;;;2.08;1.60;;;;;;;14.80;80.47;100161.19;5091538;28;20028;-79
2022/09/02 00:25:33;;;;;;;1.95;1.58;;;;;;;14.79;80.78;100158.63;5091789;28;20470;-79
2022/09/02 00:27:59;;;;;;;2.50;1.98;;;;;;;14.82;81.10;100166.31;5091723;28;20157;-79
2022/09/02 00:30:26;;;;;;;3.22;1.98;;;;;;;14.81;80.72;100169.88;5091951;28;20073;-79
2022/09/02 00:32:52;;;;;;;1.80;1.60;;;;;;;14.79;80.83;100169.09;5091679;28;20028;-79
2022/09/02 00:35:18;;;;;;;2.53;1.70;;;;;;;14.76;80.59;100164.06;5091557;28;20016;-79
2022/09/02 00:37:43;;;;;;;2.58;1.70;;;;;;;14.71;80.46;100161.69;5091875;28;20038;-79
2022/09/02 00:40:10;;;;;;;2.97;1.60;;;;;;;14.76;80.52;100169.31;5091909;28;20333;-79
2022/09/02 00:42:36;;;;;;;3.30;1.80;;;;;;;14.73;80.44;100170.31;5091750;28;20065;-79
2022/09/02 00:45:03;;;;;;;1.92;1.75;;;;;;;14.72;80.31;100168.63;5091517;28;20024;-79
2022/09/02 00:47:31;;;;;;;2.22;1.60;;;;;;;14.67;80.01;100160.19;5091641;28;20031;-79
2022/09/02 00:49:58;;;;;;;1.65;1.55;;;;;;;14.71;80.17;100169.56;5091278;28;20461;-79
2022/09/02 00:52:28;;;;;;;3.65;1.73;;;;;;;14.70;80.37;100168.69;5091712;28;20032;-79
2022/09/02 00:55:11;;;;;;;;;;;;;;;14.71;80.42;100167.78;5092065;28;20164;-79
2022/09/02 00:57:43;;;;;;;1.73;1.60;;;;;;;14.68;80.50;100164.47;5091726;28;19915;-79
2022/09/02 01:00:23;;;;;;;2.22;2.03;;;;;;;14.69;80.63;100167.00;5091532;28;20111;-78
2022/09/02 01:02:50;;;;;;;;;;;;;;;14.66;80.84;100171.56;5090829;28;20092;-79
2022/09/02 01:05:18;;;;;;;3.55;1.92;;;;;;;14.56;81.11;100155.50;5091367;28;20280;-79
2022/09/02 01:07:44;;;;;;;2.10;1.90;;;;;;;14.56;81.41;100166.00;5091519;28;20027;-79
2022/09/02 01:10:14;;;;;;;2.78;2.00;;;;;;;14.54;81.70;100172.25;5091221;28;20024;-79
2022/09/02 01:12:40;;;;;;;3.15;2.10;;;;;;;14.48;81.80;100163.78;5091472;28;20032;-79
2022/09/02 01:15:08;;;;;;;2.38;1.90;;;;;;;14.51;82.21;100173.28;5090976;28;20027;-79
2022/09/02 01:17:34;;;;;;;2.72;2.10;;;;;;;14.46;82.07;100162.16;5091996;28;20403;-79
2022/09/02 01:20:10;;;;;;;4.43;2.13;;;;;;;14.42;82.22;100168.50;5094781;28;20107;-79
2022/09/02 01:22:37;;;;;;;3.72;1.88;;;;;;;14.38;82.78;100156.50;5094938;28;20024;-79
2022/09/02 01:25:08;;;;;;;2.55;2.00;;;;;;;14.41;82.59;100170.28;5094684;28;20047;-79
2022/09/02 01:27:33;;;;;;;;;;;;;;;14.38;82.52;100173.06;5093932;28;20020;-79
2022/09/02 01:30:00;;;;;;;3.30;2.17;;;;;;;14.37;82.85;100174.00;5094475;28;20409;-79
2022/09/02 01:32:27;;;;;;;3.72;2.08;;;;;;;14.35;82.91;100165.34;5094981;28;20032;-79
2022/09/02 01:34:53;;;;;;;2.10;1.90;;;;;;;14.33;82.75;100169.00;5094722;28;20016;-79
2022/09/02 01:37:20;;;;;;;3.13;2.40;;;;;;;14.29;83.16;100157.84;5094551;28;20126;-79
2022/09/02 01:39:45;;;;;;;3.05;2.58;;;;;;;14.25;82.98;100152.84;5094588;28;20028;-79
2022/09/02 01:42:12;;;;;;;4.82;2.72;;;;;;;14.32;83.23;100175.16;5094232;28;20016;-79
2022/09/02 01:44:44;;;;;;;3.92;2.58;;;;;;;14.29;83.18;100165.69;5094571;28;20027;-79
2022/09/02 01:47:15;;;;;;;4.38;2.08;;;;;;;14.31;83.28;100168.22;5071174;28;20106;-79
2022/09/02 01:49:41;;;;;;;2.47;1.90;;;;;;;14.30;83.62;100162.13;5071756;28;20045;-79
2022/09/02 01:52:07;;;;;;;3.33;1.80;;;;;;;14.23;83.60;100159.00;5071433;28;20114;-79
2022/09/02 01:54:33;;;;;;;3.35;2.20;;;;;;;14.29;83.80;100159.63;5071539;28;20023;-79
2022/09/02 01:56:59;;;;;;;3.28;2.17;;;;;;;14.22;83.81;100145.97;5071365;28;20028;-79
2022/09/02 01:59:24;;;;;;;3.28;2.22;;;;;;;14.23;83.96;100150.28;5071588;28;20024;-79
2022/09/02 02:01:50;;;;;;;4.93;2.03;;;;;;;14.31;84.08;100162.97;5071393;28;20036;-79
2022/09/02 02:04:15;;;;;;;2.60;1.83;;;;;;;14.25;83.92;100158.94;5071044;28;20048;-79
2022/09/02 02:06:43;;;;;;;2.75;2.17;;;;;;;14.24;84.03;100151.97;5071446;28;20388;-79
2022/09/02 02:09:09;;;;;;;3.30;1.77;;;;;;;14.19;84.01;100149.59;5071142;28;20032;-79
2022/09/02 02:11:35;;;;;;;3.35;1.98;;;;;;;14.27;84.26;100164.06;5071378;28;20028;-79
2022/09/02 02:14:00;;;;;;;3.00;2.05;;;;;;;14.25;84.52;100164.16;5071039;28;20032;-79
2022/09/02 02:16:26;;;;;;;3.20;2.10;;;;;;;14.16;84.78;100146.31;5071254;28;20549;-79
2022/09/02 02:18:51;;;;;;;2.65;2.00;;;;;;;14.18;85.46;100163.63;5089013;28;20677;-79
2022/09/02 02:21:16;;;;;;;2.92;2.20;;;;;;;14.16;85.75;100165.50;5093659;28;20039;-79
2022/09/02 02:23:42;;;;;;;2.30;1.90;;;;;;;14.10;85.53;100163.19;5093694;28;20107;-79
2022/09/02 02:26:07;;;;;;;3.08;2.05;;;;;;;14.06;85.93;100164.28;5093415;28;20372;-79
2022/09/02 02:28:33;;;;;;;2.10;1.92;;;;;;;14.03;86.23;100168.84;5093676;28;20042;-79
2022/09/02 02:30:59;;;;;;;3.42;2.20;;;;;;;13.98;86.22;100163.84;5093712;28;20018;-79
2022/09/02 02:33:27;;;;;;;3.15;1.90;;;;;;;13.89;86.49;100151.22;5093980;28;20031;-79
2022/09/02 02:35:53;;;;;;;4.13;2.28;;;;;;;13.83;87.04;100154.19;5093413;28;20472;-79
2022/09/02 02:38:19;;;;;;;2.85;2.25;;;;;;;13.76;87.37;100164.13;5091991;28;20034;-79
2022/09/02 02:40:44;;;;;;;2.75;2.08;;;;;;;13.71;88.09;100153.88;5093619;28;20012;-79
2022/09/02 02:43:09;;;;;;;5.00;2.17;;;;;;;13.70;88.58;100156.59;5093264;28;20016;-79
2022/09/02 02:45:35;;;;;;;2.63;1.70;;;;;;;13.67;89.09;100164.59;5093446;28;20020;-79
2022/09/02 02:48:01;;;;;;;2.55;2.10;;;;;;;13.73;88.89;100172.13;5093382;28;20111;-79
2022/09/02 02:50:26;;;;;;;3.17;2.00;;;;;;;13.65;89.16;100162.06;5093296;28;20058;-79
2022/09/02 02:52:53;;;;;;;2.78;2.15;;;;;;;13.67;89.69;100161.97;5093356;28;20433;-79
2022/09/02 02:55:19;;;;;;;3.05;2.22;;;;;;;13.59;89.58;100154.50;5092900;28;20020;-79
2022/09/02 02:57:45;;;;;;;7.10;2.80;;;;;;;13.61;89.35;100159.66;5093083;28;20376;-79
2022/09/02 03:00:15;;;;;;;5.22;2.35;;;;;;;13.51;90.05;100147.97;5092874;28;20027;-79
2022/09/02 03:02:41;;;;;;;4.07;2.63;;;;;;;13.54;90.07;100156.53;5093291;28;20028;-79
2022/09/02 03:05:08;;;;;;;5.07;2.67;;;;;;;13.50;90.71;100147.13;5092561;28;20051;-79
2022/09/02 03:07:33;;;;;;;5.38;2.28;;;;;;;13.44;91.06;100145.69;5093074;28;20028;-79
2022/09/02 03:09:59;;;;;;;4.10;3.00;;;;;;;13.43;91.31;100146.56;5093017;28;20103;-79
2022/09/02 03:12:25;;;;;;;4.13;2.92;;;;;;;13.41;91.90;100142.38;5092571;28;20392;-78
2022/09/02 03:14:51;;;;;;;4.15;3.17;;;;;;;13.47;91.89;100152.50;5092828;28;20410;-79
2022/09/02 03:17:17;;;;;;;4.57;3.42;;;;;;;13.45;92.09;100151.75;5092479;28;20023;-79
2022/09/02 03:19:43;;;;;;;4.57;3.33;;;;;;;13.43;91.88;100149.19;5092728;28;20379;-79
2022/09/02 03:22:09;;;;;;;6.30;3.63;;;;;;;13.41;92.08;100143.22;5092326;28;20102;-79
2022/09/02 03:24:36;;;;;;;7.22;3.55;;;;;;;13.37;92.17;100138.22;5092752;28;20056;-79
2022/09/02 03:27:02;;;;;;;5.15;3.38;;;;;;;13.40;92.51;100151.13;5092778;28;20491;-79
2022/09/02 03:29:28;;;;;;;4.50;3.30;;;;;;;13.34;92.43;100131.34;5092719;28;20024;-79
2022/09/02 03:31:53;;;;;;;7.03;3.15;;;;;;;13.38;92.39;100145.13;5092513;28;20100;-78
2022/09/02 03:34:19;;;;;;;3.85;3.45;;;;;;;13.31;92.49;100133.28;5092172;28;20059;-79
2022/09/02 03:36:45;;;;;;;3.80;3.08;;;;;;;13.32;92.38;100137.59;5092356;28;20013;-79
2022/09/02 03:39:11;;;;;;;4.28;3.20;;;;;;;13.35;92.98;100146.13;5092439;28;20428;-79
2022/09/02 03:41:39;;;;;;;4.97;3.13;;;;;;;13.36;93.05;100132.13;5091953;28;20024;-79
2022/09/02 03:44:05;;;;;;;5.43;2.72;;;;;;;13.41;92.62;100148.44;5092178;28;20039;-79
2022/09/02 03:46:31;;;;;;;3.00;2.70;;;;;;;13.38;92.63;100142.50;5092490;28;20027;-79
2022/09/02 03:48:56;;;;;;;7.32;2.95;;;;;;;13.38;92.77;100143.34;5092271;28;20032;-79
2022/09/02 03:51:22;;;;;;;5.13;3.00;;;;;;;13.41;92.84;100148.44;5091914;28;20106;-79
2022/09/02 03:53:48;;;;;;;4.55;2.83;;;;;;;13.41;92.57;100158.91;5092364;28;20055;-79
2022/09/02 03:56:14;;;;;;;4.05;2.70;;;;;;;13.35;92.71;100142.66;5091840;28;20026;-79
2022/09/02 03:58:44;;;;;;;4.18;2.72;;;;;;;13.38;92.81;100160.81;5092206;28;20027;-79
2022/09/02 04:01:21;;;;;;;5.03;3.10;;;;;;;13.30;92.77;100157.75;5091834;28;20491;-79
2022/09/02 04:03:47;;;;;;;4.55;3.33;;;;;;;13.32;92.87;100159.38;5092003;28;20051;-79
2022/09/02 04:06:14;;;;;;;4.78;3.08;;;;;;;13.27;93.13;100158.72;5092037;28;20024;-79
2022/09/02 04:08:40;;;;;;;6.72;3.13;;;;;;;13.28;93.49;100160.44;5092001;28;20031;-79
2022/09/02 04:11:13;;;;;;;8.25;3.10;;;;;;;13.30;93.39;100157.75;5091960;28;20360;-79
2022/09/02 04:13:39;;;;;;;4.25;3.20;;;;;;;13.22;93.62;100150.25;5092040;28;20089;-79
2022/09/02 04:16:09;;;;;;;6.40;3.75;;;;;;;13.29;93.88;100156.91;5092688;28;20028;-79
2022/09/02 04:18:35;;;;;;;4.03;3.13;;;;;;;13.27;94.04;100157.88;5091734;28;20031;-79
2022/09/02 04:21:00;;;;;;;6.43;3.10;;;;;;;13.18;94.42;100151.31;5091890;28;20020;-79
2022/09/02 04:23:27;;;;;;;5.15;3.55;;;;;;;13.20;94.62;100159.94;5091742;28;20036;-79
2022/09/02 04:25:53;;;;;;;6.10;3.25;;;;;;;13.12;94.77;100156.84;5091906;28;20016;-79
2022/09/02 04:28:18;;;;;;;6.13;3.30;;;;;;;13.02;94.79;100147.75;5091629;28;20027;-79
2022/09/02 04:30:43;;;;;;;4.88;3.00;;;;;;;12.99;94.99;100151.38;5091985;28;20020;-79
2022/09/02 04:33:09;;;;;;;4.93;3.25;;;;;;;12.94;95.38;100156.84;5092011;28;20461;-79
2022/09/02 04:35:42;;;;;;;7.00;3.50;;;;;;;12.97;95.73;100167.13;5091978;28;20449;-79
2022/09/02 04:38:08;;;;;;;4.47;3.28;;;;;;;12.89;96.04;100150.09;5091816;28;20472;-79
2022/09/02 04:40:35;;;;;;;4.85;3.17;;;;;;;12.83;96.11;100151.25;5091832;28;20016;-79
2022/09/02 04:43:00;;;;;;;4.75;3.15;;;;;;;12.92;96.09;100163.88;5091844;28;20028;-79
2022/09/02 04:45:25;;;;;;;5.43;3.10;;;;;;;12.86;96.32;100153.75;5091413;28;20020;-79
2022/09/02 04:47:51;;;;;;;4.35;3.08;;;;;;;12.88;96.30;100159.72;5091629;28;20418;-79
2022/09/02 04:50:17;;;;;;;6.55;3.30;;;;;;;12.99;96.32;100167.91;5091744;28;20380;-79
2022/09/02 04:52:42;;;;;;;8.38;4.20;;;;;;;13.08;96.25;100166.63;5092581;28;20055;-79
2022/09/02 04:55:09;;;;;;;6.45;3.75;;;;;;;13.17;96.11;100160.09;5095378;28;20012;-79
2022/09/02 04:57:35;;;;;;;6.43;3.92;;;;;;;13.25;95.16;100155.34;5095426;28;20028;-79
2022/09/02 05:00:03;;;;;;;5.38;3.60;;;;;;;13.38;94.62;100159.06;5095190;28;20027;-79
2022/09/02 05:02:29;;;;;;;5.75;3.90;;;;;;;13.57;94.45;100168.59;5095264;28;20038;-79
2022/09/02 05:04:54;;;;;;;5.05;3.90;;;;;;;13.70;93.26;100170.53;5095440;28;20040;-79
2022/09/02 05:07:19;;;;;;;5.75;3.83;;;;;;;13.94;92.73;100170.16;5095118;28;20027;-79
2022/09/02 05:09:44;;;;;;;5.85;3.78;;;;;;;14.29;92.72;100170.94;5095255;28;20084;-79
2022/09/02 05:12:10;;;;;;;6.85;3.97;;;;;;;14.58;91.51;100155.41;5094930;28;20359;-79
2022/09/02 05:14:35;;;;;;;7.65;3.83;;;;;;;14.79;88.18;100153.38;5094944;28;20074;-79
2022/09/02 05:17:01;;;;;;;7.28;4.30;;;;;;;15.01;86.64;100161.75;5095237;28;20021;-79
2022/09/02 05:19:27;;;;;;;6.03;4.18;;;;;;;15.02;85.48;100170.47;5094941;28;20020;-79
2022/09/02 05:21:54;;;;;;;5.80;3.70;;;;;;;14.90;84.99;100157.09;5095091;28;20356;-79
2022/09/02 05:24:19;;;;;;;6.05;4.00;;;;;;;14.85;85.53;100159.13;5094770;28;20027;-79
2022/09/02 05:26:44;;;;;;;8.85;4.63;;;;;;;14.91;85.72;100158.78;5094786;28;20039;-79
2022/09/02 05:29:11;;;;;;;8.40;3.35;;;;;;;14.87;85.58;100156.41;5094715;28;20062;-79
2022/09/02 05:31:39;;;;;;;3.95;2.92;;;;;;;14.76;85.82;100162.28;5094917;28;20039;-79
2022/09/02 05:34:04;;;;;;;5.78;3.40;;;;;;;14.64;87.15;100155.09;5094850;28;20051;-79
2022/09/02 05:36:31;;;;;;;3.97;3.22;;;;;;;14.58;87.28;100158.03;5094589;28;20461;-79
2022/09/02 05:38:57;;;;;;;6.28;3.67;;;;;;;14.53;87.48;100166.16;5094662;28;20035;-79
2022/09/02 05:41:24;;;;;;;4.40;3.30;;;;;;;14.42;87.83;100165.88;5094215;28;20499;-79
2022/09/02 05:43:52;;;;;;;6.55;3.25;;;;;;;14.37;88.98;100162.66;5094397;28;20031;-79
2022/09/02 05:46:20;;;;;;;5.78;3.30;;;;;;;14.25;89.43;100164.16;5094383;28;20016;-79
2022/09/02 05:49:05;;;;;;;4.28;2.80;;;;;;;14.47;89.34;100169.94;5094491;28;20020;-79
2022/09/02 05:51:43;;;;;;;4.65;3.00;;;;;;;14.54;88.78;100165.25;5094287;28;20023;-79
2022/09/02 05:54:15;;;;;;;3.60;2.40;;;;;;;14.38;87.30;100164.34;5094016;28;20038;-79
2022/09/02 05:56:44;;;;;;;3.70;2.60;;;;;;;14.32;87.66;100173.38;5094519;28;20024;-79
2022/09/02 05:59:09;;;;;;;3.92;2.88;;;;;;;14.23;89.05;100161.59;5094548;28;20051;-79
2022/09/02 06:01:35;;;;;;;7.28;2.88;;;;;;;14.23;89.50;100163.38;5094482;28;20044;-79
2022/09/02 06:04:02;;;;;;;11.20;3.40;;;;;;;14.36;90.07;100177.50;5093897;28;20040;-79
2022/09/02 06:06:28;;;;;;;5.25;3.15;;;;;;;14.43;89.77;100162.31;5093877;28;20031;-79
2022/09/02 06:08:54;;;;;;;10.10;4.10;;;;;;;14.76;88.74;100164.91;5093961;28;20465;-79
2022/09/02 06:11:23;;;;;;;4.90;4.30;;;;;;;15.11;87.63;100170.78;5094087;28;20020;-79
2022/09/02 06:13:51;;;;;;;8.20;4.22;;;;;;;15.57;86.57;100167.28;5094301;28;20032;-79
2022/09/02 06:16:19;;;;;;;4.70;3.78;;;;;;;15.98;84.84;100180.59;5093735;28;20042;-79
2022/09/02 06:18:45;;;;;;;6.15;3.75;;;;;;;16.20;83.37;100178.34;5093858;28;20028;-79
2022/09/02 06:21:11;;;;;;;7.18;4.20;;;;;;;16.52;82.46;100177.25;5093725;28;20016;-79
2022/09/02 06:23:37;;;;;;;5.22;3.40;;;;;;;17.09;80.55;100182.41;5093750;28;20097;-79
2022/09/02 06:26:04;;;;;;;4.55;3.83;;;;;;;17.70;78.94;100175.72;5093908;28;20415;-79
2022/09/02 06:28:31;;;;;;;5.57;3.83;;;;;;;18.34;77.11;100179.22;5093513;28;20387;-79
2022/09/02 06:30:56;;;;;;;4.65;3.72;;;;;;;18.67;74.46;100181.25;5093642;28;20020;-79
2022/09/02 06:33:22;;;;;;;6.40;3.20;;;;;;;18.79;72.61;100166.31;5093218;28;20346;-79
2022/09/02 06:35:48;;;;;;;9.02;3.30;;;;;;;19.44;71.48;100173.84;5093363;28;20016;-79
2022/09/02 06:38:14;;;;;;;6.93;3.50;;;;;;;19.73;70.04;100176.13;5093676;28;20024;-79
2022/09/02 06:40:52;;;;;;;7.20;3.45;;;;;;;19.69;69.07;100179.94;5093389;28;20024;-79
2022/09/02 06:43:17;;;;;;;7.15;3.58;;;;;;;19.53;68.66;100171.47;5093127;28;20469;-79
2022/09/02 06:45:43;;;;;;;10.60;3.08;;;;;;;19.68;68.22;100175.63;5093401;28;20051;-79
2022/09/02 06:48:09;;;;;;;4.63;3.15;;;;;;;19.86;67.50;100184.78;5093297;28;20477;-79
2022/09/02 06:50:40;;;;;;;5.78;3.40;;;;;;;19.72;67.29;100182.38;5092914;28;20426;-79
2022/09/02 06:53:07;;;;;;;9.65;3.72;;;;;;;20.00;67.98;100177.59;5093339;28;20024;-79
2022/09/02 06:55:34;;;;;;;4.93;3.20;;;;;;;20.76;65.24;100189.25;5092574;28;20453;-79
2022/09/02 06:58:00;;;;;;;4.88;2.80;;;;;;;21.17;63.86;100188.53;5092936;28;20111;-79
2022/09/02 07:00:25;;;;;;;4.03;2.90;;;;;;;21.64;63.08;100167.84;5092872;28;20016;-79
2022/09/02 07:05:08;;;;;;;5.03;2.75;;;;;;;22.17;61.25;100170.41;5092821;28;20592;-79
2022/09/02 07:05:35;;;;;;;5.15;3.05;;;;;;;22.42;59.73;100177.06;5092683;28;20086;-79
2022/09/02 07:08:01;;;;;;;4.53;2.60;;;;;;;23.10;58.83;100171.94;5093051;28;20023;-79
2022/09/02 07:10:26;;;;;;;5.47;2.80;;;;;;;23.87;56.90;100177.19;5093068;28;20051;-79
2022/09/02 07:12:52;;;;;;;2.90;2.30;;;;;;;25.37;53.97;100181.31;5093103;28;20032;-79
2022/09/02 07:15:17;;;;;;;5.53;2.50;;;;;;;29.06;46.86;100188.78;5091824;28;20031;-80
2022/09/02 07:17:43;;;;;;;3.85;2.80;;;;;;;31.86;41.70;100183.34;5091207;28;20027;-80
2022/09/02 07:20:09;;;;;;;4.03;2.38;;;;;;;34.28;38.78;100187.00;5092609;28;20084;-80
2022/09/02 07:22:34;;;;;;;3.17;2.38;;;;;;;36.32;35.40;100180.31;5092217;28;20024;-80
2022/09/02 07:25:00;;;;;;;3.85;2.15;;;;;;;37.68;33.13;100186.13;5092280;28;20024;-80
2022/09/02 07:27:25;;;;;;;4.03;2.33;;;;;;;38.46;31.82;100175.88;5092022;28;20032;-80
2022/09/02 07:29:50;;;;;;;3.20;2.28;;;;;;;38.88;30.70;100190.03;5092134;28;20036;-80
2022/09/02 07:32:16;;;;;;;4.65;2.45;;;;;;;40.36;29.81;100184.97;5092382;28;20030;-80
2022/09/02 07:34:42;;;;;;;3.00;2.10;;;;;;;42.03;28.01;100192.25;5092296;28;20023;-80
2022/09/02 07:37:08;;;;;;;2.33;2.08;;;;;;;43.00;26.98;100184.34;5092613;28;20365;-81
2022/09/02 07:39:33;;;;;;;2.28;1.98;;;;;;;42.84;26.60;100172.53;5092257;28;20026;-80
2022/09/02 07:41:59;;;;;;;3.45;2.05;;;;;;;43.19;26.34;100173.69;5092456;28;20028;-80
2022/09/02 07:44:24;;;;;;;3.03;2.10;;;;;;;43.46;26.44;100173.44;5092033;28;20026;-81
2022/09/02 07:46:50;;;;;;;2.15;1.90;;;;;;;42.75;26.53;100178.84;5094303;28;20031;-80
2022/09/02 07:49:16;;;;;;;3.88;1.95;;;;;;;42.86;26.70;100177.78;5099733;28;20460;-80
2022/09/02 07:51:45;;;;;;;3.17;1.95;;;;;;;44.06;25.76;100177.13;5095628;28;20059;-81
2022/09/02 07:54:11;;;;;;;2.25;1.70;;;;;;;43.78;24.87;100180.47;5100313;28;20094;-81
2022/09/02 07:56:37;;;;;;;1.92;1.70;;;;;;;43.48;25.26;100171.22;5094517;28;20337;-81
2022/09/02 07:59:02;;;;;;;3.53;1.50;;;;;;;43.75;25.24;100173.63;5092074;28;20103;-81
2022/09/02 08:01:28;;;;;;;4.57;1.45;;;;;;;44.28;25.38;100170.47;5091925;28;20144;-81
2022/09/02 08:03:54;;;;;;;4.95;2.80;;;;;;;43.07;25.29;100173.16;5101838;28;20039;-81
2022/09/02 08:06:22;;;;;;;2.05;1.27;;;;;;;42.32;25.09;100159.00;5101054;28;20054;-80
2022/09/02 08:08:48;;;;;;;1.67;1.35;;;;;;;39.97;26.13;100162.38;5105949;28;20024;-80
2022/09/02 08:11:13;;;;;;;2.03;1.50;;;;;;;35.82;30.51;100164.19;5116319;28;20528;-80
2022/09/02 08:13:39;;;;;;;1.65;1.50;;;;;;;32.43;33.94;100148.03;5116473;27;20023;-80
2022/09/02 08:16:05;;;;;;;1.50;1.40;;;;;;;29.82;37.13;100160.16;5124485;27;20089;-80
2022/09/02 08:18:30;;;;;;;2.88;1.45;;;;;;;27.35;40.75;100147.31;5119874;27;20054;-79
2022/09/02 08:20:56;;;;;;;3.05;1.60;;;;;;;26.07;43.18;100151.09;5132603;27;20028;-79
2022/09/02 08:23:22;;;;;;;2.90;1.40;;;;;;;24.93;45.46;100151.03;5132197;27;20027;-80
2022/09/02 08:25:47;;;;;;;3.45;1.85;;;;;;;24.02;47.32;100153.63;5132303;27;20023;-79
2022/09/02 08:28:13;;;;;;;2.05;1.70;;;;;;;23.32;49.89;100139.75;5115559;27;20020;-79
2022/09/02 08:30:39;;;;;;;1.42;1.27;;;;;;;22.80;51.07;100149.78;5095627;28;20035;-79
2022/09/02 08:33:04;;;;;;;2.75;1.85;;;;;;;22.45;52.92;100152.91;5095969;28;20024;-79
2022/09/02 08:35:30;;;;;;;3.78;1.80;;;;;;;22.00;54.23;100142.66;5095872;28;20020;-79
2022/09/02 08:37:57;;;;;;;2.15;1.40;;;;;;;21.91;54.76;100159.34;5095840;28;20020;-79
2022/09/02 08:40:26;;;;;;;1.40;1.30;;;;;;;21.55;53.54;100150.09;5095603;28;20024;-79
2022/09/02 08:42:55;;;;;;;2.00;1.37;;;;;;;21.17;54.48;100159.38;5096431;28;20024;-79
2022/09/02 08:45:33;;;;;;;2.25;1.52;;;;;;;20.92;55.59;100148.16;5095888;28;20024;-79
2022/09/02 08:48:10;;;;;;;5.43;2.40;;;;;;;20.77;56.15;100161.78;5095685;28;20016;-79
2022/09/02 08:50:39;;;;;;;1.67;1.45;;;;;;;20.70;56.12;100166.75;5095372;28;20035;-79
2022/09/02 08:53:33;;;;;;;2.80;1.65;;;;;;;20.46;56.80;100172.16;5095451;28;20103;-79
2022/09/02 08:56:00;;;;;;;1.42;1.33;;;;;;;20.30;58.50;100154.03;5052654;28;20033;-79
2022/09/02 08:58:36;;;;;;;3.20;1.50;;;;;;;20.41;57.68;100161.13;5052492;28;20033;-79
2022/09/02 09:01:24;;;;;;;1.30;1.25;;;;;;;20.44;57.00;100159.06;5052693;28;20037;-79
2022/09/02 09:04:09;;;;;;;1.30;1.20;;;;;;;20.42;56.94;100155.69;5052395;28;20049;-79
2022/09/02 09:06:57;;;;;;;1.88;1.42;;;;;;;20.44;57.44;100158.25;5052309;28;20033;-79
2022/09/02 09:09:34;;;;;;;2.50;1.48;;;;;;;20.46;57.30;100148.34;5052648;28;20029;-79
2022/09/02 09:12:02;;;;;;;1.55;1.40;;;;;;;20.34;57.12;100155.47;5052452;28;20112;-79
2022/09/02 09:14:27;;;;;;;3.20;1.48;;;;;;;20.21;57.17;100159.19;5052089;28;20072;-79
2022/09/02 09:17:04;;;;;;;1.10;1.10;;;;;;;20.14;56.23;100143.84;5052402;28;20063;-79
2022/09/02 09:19:57;;;;;;;1.60;1.40;;;;;;;20.06;56.60;100145.41;5052096;28;20037;-79
2022/09/02 09:22:41;;;;;;;1.38;1.20;;;;;;;19.89;56.93;100138.78;5052352;28;20031;-79
2022/09/02 09:25:14;;;;;;;1.40;1.30;;;;;;;19.94;57.56;100137.44;5052261;28;20120;-79
2022/09/02 09:27:39;;;;;;;1.45;1.25;;;;;;;19.75;57.09;100117.84;5052013;28;20048;-79
2022/09/02 09:30:08;;;;;;;1.15;1.08;;;;;;;19.87;57.71;100148.63;5052188;28;20123;-79
2022/09/02 09:32:41;;;;;;;1.30;1.20;;;;;;;19.97;57.32;100143.44;5070013;28;20438;-79
2022/09/02 09:35:10;;;;;;;2.63;1.40;;;;;;;20.26;57.51;100142.00;5094477;28;20031;-79
2022/09/02 09:37:41;;;;;;;1.73;1.30;;;;;;;20.37;56.11;100146.44;5094620;28;20073;-79
2022/09/02 09:40:24;;;;;;;1.50;1.30;;;;;;;20.34;56.82;100144.03;5094014;28;20028;-79
2022/09/02 09:43:15;;;;;;;8.68;2.97;;;;;;;20.16;57.02;100133.13;5094445;28;20084;-79
2022/09/02 09:45:44;;;;;;;;;;;;;;;20.38;56.43;100137.53;5094626;28;20067;-79
2022/09/02 09:48:21;;;;;;;3.38;2.05;;;;;;;20.49;55.56;100131.44;5094741;28;20267;-79
2022/09/02 09:50:55;;;;;;;1.52;1.33;;;;;;;20.25;54.44;100136.84;5095063;27;20030;-79
2022/09/02 09:53:26;;;;;;;1.63;1.40;;;;;;;20.29;55.23;100133.81;5123235;27;20018;-78
2022/09/02 09:55:57;;;;;;;1.75;1.13;;;;;;;20.08;55.42;100127.59;5124768;27;20022;-79
2022/09/02 09:58:45;;;;;;;1.52;1.17;;;;;;;20.01;55.92;100136.97;5114717;28;20408;-79
2022/09/02 10:01:25;;;;;;;1.65;1.20;;;;;;;20.00;55.56;100128.19;5132156;27;20093;-79
2022/09/02 10:03:54;;;;;;;1.77;1.17;;;;;;;19.99;55.18;100123.88;5134985;27;20043;-79
2022/09/02 10:06:34;;;;;;;1.77;1.30;;;;;;;19.86;55.42;100116.06;5135042;27;20027;-79
2022/09/02 10:09:01;;;;;;;3.28;1.38;;;;;;;19.77;56.17;100121.22;5123190;27;20360;-79
2022/09/02 10:11:28;;;;;;;1.20;1.10;;;;;;;19.85;56.58;100129.41;5114457;28;20027;-79
2022/09/02 10:14:02;;;;;;;3.15;1.30;;;;;;;20.01;56.86;100113.16;5114288;28;20023;-80
2022/09/02 10:16:49;;;;;;;1.42;1.30;;;;;;;20.06;56.07;100118.94;5114266;28;20046;-79
2022/09/02 10:19:25;;;;;;;3.50;1.40;;;;;;;19.90;56.19;100116.66;5114453;28;20045;-79
2022/09/02 10:22:12;;;;;;;1.63;1.30;;;;;;;19.85;56.54;100118.81;5114024;28;20479;-80
2022/09/02 10:25:27;;;;;;;2.70;1.40;;;;;;;19.71;57.31;100111.09;5113932;28;20139;-79
2022/09/02 10:28:16;;;;;;;1.92;1.45;;;;;;;19.96;57.43;100117.97;5093838;28;20032;-80
2022/09/02 10:31:03;;;;;;;1.38;1.10;;;;;;;20.07;56.80;100113.53;5093751;28;20524;-80
2022/09/02 10:34:03;;;;;;;1.73;1.63;;;;;;;20.01;56.31;100106.06;5093617;28;20027;-80
2022/09/02 10:36:50;;;;;;;2.30;1.50;;;;;;;20.19;56.04;100104.63;5050815;28;20040;-80
2022/09/02 10:39:18;;;;;;;5.80;4.78;;;;;;;20.43;56.73;100099.16;5050761;28;20259;-79
2022/09/02 10:41:45;;;;;;;2.30;1.60;;;;;;;20.65;56.68;100086.91;5050522;28;20041;-80
2022/09/02 10:44:26;;;;;;;2.10;1.50;;;;;;;20.80;55.69;100096.22;5050786;28;20485;-80
2022/09/02 10:47:06;;;;;;;4.93;1.55;;;;;;;20.82;56.11;100102.22;5050299;28;20056;-80
2022/09/02 10:49:54;;;;;;;3.88;1.88;;;;;;;20.57;55.26;100102.56;5050355;28;20021;-80
2022/09/02 10:52:37;;;;;;;2.15;1.50;;;;;;;20.66;56.55;100091.22;5050438;28;20068;-80
2022/09/02 10:55:36;;;;;;;1.40;1.30;;;;;;;20.74;55.56;100096.72;5050252;28;20045;-80
2022/09/02 10:58:13;;;;;;;2.33;1.40;;;;;;;20.50;55.39;100101.38;5050467;28;20036;-80
2022/09/02 11:00:43;;;;;;;1.77;1.50;;;;;;;20.42;55.65;100101.94;5080497;28;20028;-80
2022/09/02 11:03:19;;;;;;;1.52;1.35;;;;;;;20.41;56.71;100095.81;5090488;28;20052;-80
2022/09/02 11:06:10;;;;;;;1.30;1.20;;;;;;;20.43;56.73;100103.63;5090467;28;20051;-80
2022/09/02 11:08:42;;;;;;;4.75;1.73;;;;;;;20.33;56.38;100089.47;5090182;28;20020;-80
2022/09/02 11:11:20;;;;;;;4.03;2.17;;;;;;;20.30;56.73;100087.88;5090751;28;20412;-80
2022/09/02 11:13:51;;;;;;;1.48;1.38;;;;;;;20.48;56.18;100103.25;5115106;27;20463;-80
2022/09/02 11:16:17;;;;;;;2.53;1.40;;;;;;;20.51;56.36;100105.69;5133604;27;20379;-80
2022/09/02 11:19:07;;;;;;;1.67;1.40;;;;;;;20.24;57.12;100093.69;5133349;27;20023;-80
2022/09/02 11:21:57;;;;;;;4.13;1.60;;;;;;;20.06;58.11;100087.22;5133606;27;20035;-80
2022/09/02 11:24:41;;;;;;;2.33;1.88;;;;;;;20.12;58.22;100095.50;5133537;27;20034;-80
2022/09/02 11:27:34;;;;;;;3.00;1.48;;;;;;;20.21;54.52;100082.50;5133071;27;20495;-80
2022/09/02 11:30:12;;;;;;;1.80;1.38;;;;;;;20.41;54.52;100074.66;5117437;27;20395;-80
2022/09/02 11:32:54;;;;;;;1.50;1.40;;;;;;;20.71;54.19;100059.91;5092005;28;20372;-80
2022/09/02 11:35:26;;;;;;;1.50;1.40;;;;;;;20.66;52.78;100064.75;5091886;28;20024;-80
2022/09/02 11:37:58;;;;;;;1.98;1.40;;;;;;;20.62;53.67;100058.88;5091941;28;20012;-80